Ana Sayfa
METAR-TAF:

METAR-TAF

Havaalanları :

La Paz, Bolivya

Enlem: 16-31S, Boylam: 068-11W, yükseklik: 4058 m

Güncel hava durumu gözlemi

Rapor saat 11:00 UTC de 1 saat ve 0 dakika önce yapıldı.
Rüzgar doğudan 8 kt
Sıcaklık 8°C
Nem 81%
Basınç 1040 hPa
Görüş mesafesi: 6000 m
400 ft yükseklikte az bulutlu
20000 ft yükseklikte parçalı bulutlu

METAR: SLLP 101100Z 09008KT 6000 FEW004 SCT200 08/05 Q1040

Saat: 08:00 (12:00 UTC)

Tahmin

Rapor saat 10:50 UTC de 1 saat ve 10 dakika önce yapıldı.
Ayın 10'si saat 12 UTC'den ayın 11'si saat 12 UTC'ye kadar geçerli Tahmin
Rüzgar güney/güneydoğudan 10 kt
Görüş mesafesi 10 km veya daha fazla
1700 ft yükseklikte az bulutlu
Geçici
ayın 10'si saat 18 UTC'den ayın 10'si saat 21 UTC'ye kadar
Rüzgar kuzeydoğudan 14 kt
2000 ft yükseklikte az bulutlu, Kümülonimbus.

TAF: SLLP 101050Z 1012/1112 15010KT 9999 FEW017 TX20/1020Z TNM02/1110Z TEMPO 1018/1021 05014KT FEW020CB

4.000'den fazla havaalanı için hava durumu gözlemleri ve tahminleri (METAR ve TAF raporları).

Kullanılabilir istasyonlar harita üzerinde sarı ve kırmızı noktalarla gösterilir.

İstasyonun adını görmek için fareyi noktanın üzerinde gezdirin.

Sonrasında hava gözlem ve tahminlerini görmek için tıklayın.

Haritayı değiştirmek için: yaklaştırmak için siyah artı işaretli yeşil düğmeye ve uzaklaştırmak için de eksi işaretli düğmeye hızla tıklayın; bitişik haritalar için yeşil okları kullanın.


METAR-TAF: